createdAt,value
2023-10-03T00:00:54.582Z,961.46
2023-10-03T00:03:21.248Z,961.39
2023-10-03T00:05:47.444Z,961.48
2023-10-03T00:08:13.830Z,961.43
2023-10-03T00:10:40.198Z,961.46
2023-10-03T00:13:06.597Z,961.48
2023-10-03T00:15:33.034Z,961.48
2023-10-03T00:17:59.474Z,961.39
2023-10-03T00:20:25.882Z,961.36
2023-10-03T00:22:52.375Z,961.40
2023-10-03T00:25:18.731Z,961.38
2023-10-03T00:27:45.083Z,961.46
2023-10-03T00:30:11.484Z,961.47
2023-10-03T00:32:37.873Z,961.40
2023-10-03T00:35:04.260Z,961.38
2023-10-03T00:37:30.600Z,961.42
2023-10-03T00:39:57.027Z,961.38
2023-10-03T00:42:23.458Z,961.43
2023-10-03T00:44:49.925Z,961.36
2023-10-03T00:47:16.273Z,961.37
2023-10-03T00:49:42.756Z,961.44
2023-10-03T00:52:09.178Z,961.44
2023-10-03T00:54:35.624Z,961.44
2023-10-03T00:57:02.060Z,961.44
2023-10-03T00:59:28.498Z,961.52
2023-10-03T01:01:54.842Z,961.49
2023-10-03T01:04:21.587Z,961.46
2023-10-03T01:06:47.603Z,961.45
2023-10-03T01:09:14.117Z,961.44
2023-10-03T01:11:40.638Z,961.41
2023-10-03T01:14:06.998Z,961.34
2023-10-03T01:16:33.516Z,961.45
2023-10-03T01:19:00.124Z,961.42
2023-10-03T01:21:26.345Z,961.44
2023-10-03T01:23:52.799Z,961.47
2023-10-03T01:26:19.153Z,961.39
2023-10-03T01:28:45.564Z,961.39
2023-10-03T01:31:12.068Z,961.38
2023-10-03T01:33:38.500Z,961.40
2023-10-03T01:36:04.996Z,961.40
2023-10-03T01:38:31.485Z,961.36
2023-10-03T01:40:57.853Z,961.37
2023-10-03T01:43:24.288Z,961.36
2023-10-03T01:45:50.717Z,961.37
2023-10-03T01:48:17.165Z,961.36
2023-10-03T01:50:43.588Z,961.34
2023-10-03T01:53:10.128Z,961.35
2023-10-03T01:55:36.485Z,961.34
2023-10-03T01:58:02.998Z,961.38
2023-10-03T02:00:29.372Z,961.35
2023-10-03T02:02:56.073Z,961.27
2023-10-03T02:05:22.274Z,961.31
2023-10-03T02:07:48.726Z,961.26
2023-10-03T02:10:15.093Z,961.24
2023-10-03T02:12:41.567Z,961.23
2023-10-03T02:15:08.102Z,961.22
2023-10-03T02:17:34.632Z,961.14
2023-10-03T02:20:00.961Z,961.16
2023-10-03T02:22:27.424Z,961.18
2023-10-03T02:24:53.810Z,961.15
2023-10-03T02:27:20.299Z,961.05
2023-10-03T02:29:46.828Z,961.15
2023-10-03T02:32:13.288Z,961.06
2023-10-03T02:34:39.793Z,961.05
2023-10-03T02:37:06.216Z,961.09
2023-10-03T02:39:32.591Z,961.01
2023-10-03T02:41:59.122Z,961.06
2023-10-03T02:44:25.452Z,961.07
2023-10-03T02:46:51.869Z,961.06
2023-10-03T02:49:18.230Z,961.05
2023-10-03T02:51:44.673Z,961.03
2023-10-03T02:54:11.103Z,961.03
2023-10-03T02:56:37.580Z,961.06
2023-10-03T02:59:03.998Z,961.08
2023-10-03T03:01:30.468Z,961.01
2023-10-03T03:03:56.945Z,961.10
2023-10-03T03:06:23.337Z,961.11
2023-10-03T03:08:49.865Z,961.13
2023-10-03T03:11:16.390Z,961.22
2023-10-03T03:13:45.317Z,961.18
2023-10-03T03:16:09.398Z,961.22
2023-10-03T03:18:35.730Z,961.19
2023-10-03T03:21:02.041Z,961.20
2023-10-03T03:23:28.445Z,961.20
2023-10-03T03:25:54.889Z,961.18
2023-10-03T03:28:21.316Z,961.19
2023-10-03T03:30:47.879Z,961.24
2023-10-03T03:33:14.588Z,961.25
2023-10-03T03:35:40.927Z,961.28
2023-10-03T03:38:07.283Z,961.23
2023-10-03T03:40:33.707Z,961.24
2023-10-03T03:43:02.112Z,961.21
2023-10-03T03:45:26.582Z,961.27
2023-10-03T03:47:52.937Z,961.28
2023-10-03T03:50:19.344Z,961.32
2023-10-03T03:52:45.701Z,961.40
2023-10-03T03:55:12.238Z,961.43
2023-10-03T03:57:38.625Z,961.40
2023-10-03T04:00:05.027Z,961.46
2023-10-03T04:02:31.445Z,961.49
2023-10-03T04:04:57.800Z,961.53
2023-10-03T04:07:24.196Z,961.47
2023-10-03T04:09:50.630Z,961.49
2023-10-03T04:12:16.990Z,961.48
2023-10-03T04:14:43.518Z,961.48
2023-10-03T04:17:09.827Z,961.43
2023-10-03T04:19:36.243Z,961.51
2023-10-03T04:22:02.590Z,961.51
2023-10-03T04:24:29.089Z,961.49
2023-10-03T04:26:55.600Z,961.55
2023-10-03T04:29:22.030Z,961.52
2023-10-03T04:31:48.677Z,961.51
2023-10-03T04:34:14.692Z,961.46
2023-10-03T04:36:41.179Z,961.45
2023-10-03T04:39:10.240Z,961.51
2023-10-03T04:41:34.140Z,961.47
2023-10-03T04:44:00.584Z,961.48
2023-10-03T04:46:26.923Z,961.47
2023-10-03T04:48:53.395Z,961.48
2023-10-03T04:51:19.738Z,961.48
2023-10-03T04:53:46.264Z,961.42
2023-10-03T04:56:12.629Z,961.44
2023-10-03T04:58:39.090Z,961.48
2023-10-03T05:01:05.529Z,961.49
2023-10-03T05:03:32.149Z,961.43
2023-10-03T05:05:58.373Z,961.45
2023-10-03T05:08:24.804Z,961.49
2023-10-03T05:10:51.127Z,961.48
2023-10-03T05:13:17.533Z,961.54
2023-10-03T05:15:43.939Z,961.61
2023-10-03T05:18:10.635Z,961.64
2023-10-03T05:20:36.901Z,961.67
2023-10-03T05:23:03.365Z,961.60
2023-10-03T05:25:29.774Z,961.59
2023-10-03T05:27:56.187Z,961.65
2023-10-03T05:30:22.671Z,961.67
2023-10-03T05:32:49.415Z,961.62
2023-10-03T05:35:15.603Z,961.69
2023-10-03T05:37:42.065Z,961.69
2023-10-03T05:40:08.499Z,961.72
2023-10-03T05:42:34.817Z,961.66
2023-10-03T05:45:01.254Z,961.67
2023-10-03T05:47:27.738Z,961.62
2023-10-03T05:49:54.054Z,961.62
2023-10-03T05:52:20.465Z,961.71
2023-10-03T05:54:46.848Z,961.68
2023-10-03T05:57:13.290Z,961.70
2023-10-03T05:59:39.676Z,961.68
2023-10-03T06:02:06.352Z,961.67
2023-10-03T06:04:32.725Z,961.71
2023-10-03T06:06:59.138Z,961.69
2023-10-03T06:09:25.553Z,961.73
2023-10-03T06:11:52.758Z,961.73
2023-10-03T06:14:18.450Z,961.74
2023-10-03T06:16:44.987Z,961.73
2023-10-03T06:19:11.345Z,961.81
2023-10-03T06:21:39.931Z,961.78
2023-10-03T06:24:06.317Z,961.78
2023-10-03T06:26:35.818Z,961.68
2023-10-03T06:29:02.338Z,961.82
2023-10-03T06:31:28.590Z,961.77
2023-10-03T06:33:55.019Z,961.82
2023-10-03T06:36:21.410Z,961.87
2023-10-03T06:38:47.882Z,961.90
2023-10-03T06:41:14.324Z,961.86
2023-10-03T06:43:40.808Z,961.92
2023-10-03T06:46:07.230Z,961.97
2023-10-03T06:48:33.759Z,962.00
2023-10-03T06:51:00.159Z,962.04
2023-10-03T06:53:26.626Z,961.99
2023-10-03T06:55:52.959Z,961.99
2023-10-03T06:58:19.347Z,962.00
2023-10-03T07:00:45.829Z,961.95
2023-10-03T07:03:12.319Z,961.98
2023-10-03T07:05:38.674Z,962.04
2023-10-03T07:08:04.983Z,962.08
2023-10-03T07:10:31.464Z,962.13
2023-10-03T07:12:57.870Z,962.14
2023-10-03T07:15:24.270Z,962.13
2023-10-03T07:17:50.722Z,962.11
2023-10-03T07:20:17.215Z,962.11
2023-10-03T07:22:43.625Z,962.17
2023-10-03T07:25:10.101Z,962.18
2023-10-03T07:27:36.460Z,962.18
2023-10-03T07:30:03.002Z,962.19
2023-10-03T07:32:30.590Z,962.18
2023-10-03T07:34:55.784Z,962.24
2023-10-03T07:37:22.311Z,962.20
2023-10-03T07:39:48.824Z,962.24
2023-10-03T07:42:15.192Z,962.18
2023-10-03T07:44:41.636Z,962.23
2023-10-03T07:47:08.060Z,962.19
2023-10-03T07:49:34.537Z,962.18
2023-10-03T07:52:00.880Z,962.16
2023-10-03T07:54:27.361Z,962.18
2023-10-03T07:56:53.753Z,962.14
2023-10-03T07:59:20.167Z,962.15
2023-10-03T08:02:00.304Z,962.13
2023-10-03T08:04:13.062Z,962.10
2023-10-03T08:06:39.376Z,962.12
2023-10-03T08:09:06.246Z,962.10
2023-10-03T08:11:32.194Z,962.08
2023-10-03T08:13:58.594Z,962.06
2023-10-03T08:16:25.035Z,962.07
2023-10-03T08:18:51.416Z,962.02
2023-10-03T08:21:17.773Z,962.03
2023-10-03T08:23:44.229Z,961.96
2023-10-03T08:26:10.599Z,961.98
2023-10-03T08:28:37.045Z,962.03
2023-10-03T08:31:03.424Z,961.94
2023-10-03T08:33:29.988Z,961.96
2023-10-03T08:35:56.279Z,961.96
2023-10-03T08:38:22.676Z,961.89
2023-10-03T08:40:49.096Z,961.93
2023-10-03T08:43:15.533Z,961.91
2023-10-03T08:45:41.962Z,961.86
2023-10-03T08:48:08.475Z,961.86
2023-10-03T08:50:35.230Z,961.80
2023-10-03T08:53:01.139Z,961.82
2023-10-03T08:55:28.524Z,961.81
2023-10-03T08:57:55.042Z,961.73
2023-10-03T09:00:21.394Z,961.73
2023-10-03T09:02:51.518Z,961.72
2023-10-03T09:05:14.292Z,961.69
2023-10-03T09:07:40.729Z,961.70
2023-10-03T09:10:07.490Z,961.65
2023-10-03T09:12:33.718Z,961.65
2023-10-03T09:15:00.101Z,961.63
2023-10-03T09:17:26.564Z,961.61
2023-10-03T09:19:53.014Z,961.63
2023-10-03T09:22:19.567Z,961.58
2023-10-03T09:24:45.952Z,961.57
2023-10-03T09:27:12.452Z,961.63
2023-10-03T09:29:38.813Z,961.53
2023-10-03T09:32:05.311Z,961.58
2023-10-03T09:34:31.642Z,961.60
2023-10-03T09:36:58.160Z,961.47
2023-10-03T09:39:24.785Z,961.49
2023-10-03T09:41:51.397Z,961.48
2023-10-03T09:44:17.715Z,961.44
2023-10-03T09:46:44.184Z,961.44
2023-10-03T09:49:10.686Z,961.37
2023-10-03T09:51:37.001Z,961.28
2023-10-03T09:54:03.562Z,961.37
2023-10-03T09:56:30.029Z,961.27
2023-10-03T09:58:56.434Z,961.36
2023-10-03T10:01:22.927Z,961.26
2023-10-03T10:03:49.450Z,961.22
2023-10-03T10:06:15.936Z,961.21
2023-10-03T10:08:42.493Z,961.25
2023-10-03T10:11:09.104Z,961.21
2023-10-03T10:13:35.336Z,961.11
2023-10-03T10:16:01.948Z,961.10
2023-10-03T10:18:28.366Z,961.02
2023-10-03T10:20:55.007Z,961.00
2023-10-03T10:23:21.509Z,960.99
2023-10-03T10:25:47.931Z,960.94
2023-10-03T10:28:15.664Z,960.92
2023-10-03T10:30:40.763Z,960.87
2023-10-03T10:33:07.204Z,960.85
2023-10-03T10:35:33.582Z,960.78
2023-10-03T10:37:59.986Z,960.76
2023-10-03T10:40:26.389Z,960.77
2023-10-03T10:42:52.782Z,960.71
2023-10-03T10:45:20.216Z,960.67
2023-10-03T10:47:46.843Z,960.62
2023-10-03T10:50:21.785Z,960.60
2023-10-03T10:52:39.504Z,960.65
2023-10-03T10:55:05.904Z,960.60
2023-10-03T10:57:32.524Z,960.53
2023-10-03T10:59:58.758Z,960.52
2023-10-03T11:02:25.126Z,960.53
2023-10-03T11:04:51.792Z,960.44
2023-10-03T11:07:17.932Z,960.41
2023-10-03T11:09:44.306Z,960.35
2023-10-03T11:12:10.826Z,960.35
2023-10-03T11:14:37.614Z,960.29
2023-10-03T11:17:06.074Z,960.27
2023-10-03T11:19:30.713Z,960.33
2023-10-03T11:21:57.093Z,960.25
2023-10-03T11:24:23.528Z,960.19
2023-10-03T11:26:49.936Z,960.16
2023-10-03T11:29:16.344Z,960.16
2023-10-03T11:31:42.838Z,960.13
2023-10-03T11:34:09.182Z,960.05
2023-10-03T11:36:35.610Z,960.02
2023-10-03T11:39:02.252Z,960.01
2023-10-03T11:41:28.479Z,960.01
2023-10-03T11:43:54.912Z,960.02
2023-10-03T11:46:21.420Z,959.93
2023-10-03T11:48:47.976Z,959.88
2023-10-03T11:51:14.289Z,959.86
2023-10-03T11:53:40.592Z,959.86
2023-10-03T11:56:06.993Z,959.87
2023-10-03T11:58:33.392Z,959.84
2023-10-03T12:00:59.882Z,959.86
2023-10-03T12:03:26.329Z,959.87
2023-10-03T12:05:52.623Z,959.85
2023-10-03T12:08:19.036Z,959.86
2023-10-03T12:10:45.421Z,959.78
2023-10-03T12:13:11.868Z,959.70
2023-10-03T12:15:38.345Z,959.63
2023-10-03T12:18:04.846Z,959.59
2023-10-03T12:20:31.208Z,959.55
2023-10-03T12:22:57.567Z,959.53
2023-10-03T12:25:25.196Z,959.54
2023-10-03T12:27:51.606Z,959.48
2023-10-03T12:30:18.167Z,959.46
2023-10-03T12:32:44.490Z,959.44
2023-10-03T12:35:10.943Z,959.48
2023-10-03T12:37:37.361Z,959.47
2023-10-03T12:40:04.059Z,959.42
2023-10-03T12:42:30.535Z,959.38
2023-10-03T12:44:57.006Z,959.40
2023-10-03T12:47:23.404Z,959.34
2023-10-03T12:49:49.834Z,959.33
2023-10-03T12:52:16.265Z,959.36
2023-10-03T12:54:42.709Z,959.30
2023-10-03T12:57:09.193Z,959.27
2023-10-03T12:59:35.707Z,959.27
2023-10-03T13:02:02.070Z,959.21
2023-10-03T13:04:28.658Z,959.21
2023-10-03T13:06:54.924Z,959.17
2023-10-03T13:09:22.378Z,959.15
2023-10-03T13:11:48.763Z,959.16
2023-10-03T13:14:15.385Z,959.08
2023-10-03T13:16:41.751Z,959.07
2023-10-03T13:19:08.318Z,959.02
2023-10-03T13:21:34.659Z,958.98
2023-10-03T13:24:01.382Z,959.00
2023-10-03T13:26:27.703Z,959.01
2023-10-03T13:28:54.214Z,959.01
2023-10-03T13:31:20.578Z,958.96
2023-10-03T13:33:47.180Z,958.84
2023-10-03T13:36:13.638Z,958.91
2023-10-03T13:38:40.042Z,958.94
2023-10-03T13:41:06.358Z,958.90
2023-10-03T13:43:32.898Z,958.90
2023-10-03T13:45:59.382Z,958.82
2023-10-03T13:48:25.882Z,958.82
2023-10-03T13:50:52.165Z,958.78
2023-10-03T13:53:18.593Z,958.75
2023-10-03T13:55:45.170Z,958.81
2023-10-03T13:58:11.772Z,958.82
2023-10-03T14:00:37.998Z,958.76
2023-10-03T14:03:04.500Z,958.75
2023-10-03T14:05:31.202Z,958.84
2023-10-03T14:07:57.633Z,958.79
2023-10-03T14:10:24.075Z,958.77
2023-10-03T14:12:50.521Z,958.78
2023-10-03T14:15:17.026Z,958.78
2023-10-03T14:17:43.430Z,958.77
2023-10-03T14:20:09.728Z,958.79
2023-10-03T14:22:36.228Z,958.76
2023-10-03T14:25:02.731Z,958.75
2023-10-03T14:27:29.210Z,958.74
2023-10-03T14:29:55.678Z,958.74
2023-10-03T14:32:22.035Z,958.74
2023-10-03T14:34:48.767Z,958.74
2023-10-03T14:37:15.252Z,958.74
2023-10-03T14:39:41.674Z,958.78
2023-10-03T14:42:08.172Z,958.72
2023-10-03T14:44:34.501Z,958.78
2023-10-03T14:47:01.188Z,958.71
2023-10-03T14:49:27.625Z,958.72
2023-10-03T14:51:54.150Z,958.67
2023-10-03T14:54:20.608Z,958.73
2023-10-03T14:56:47.118Z,958.64
2023-10-03T14:59:13.548Z,958.72
2023-10-03T15:01:39.985Z,958.67
2023-10-03T15:04:06.611Z,958.66
2023-10-03T15:06:33.067Z,958.70
2023-10-03T15:08:59.569Z,958.68
2023-10-03T15:11:25.909Z,958.61
2023-10-03T15:13:52.355Z,958.58
2023-10-03T15:16:18.838Z,958.61
2023-10-03T15:18:45.280Z,958.58
2023-10-03T15:21:11.800Z,958.63
2023-10-03T15:23:38.224Z,958.58
2023-10-03T15:26:04.700Z,958.62
2023-10-03T15:28:31.228Z,958.59
2023-10-03T15:30:57.703Z,958.62
2023-10-03T15:33:24.169Z,958.63
2023-10-03T15:35:50.512Z,958.61
2023-10-03T15:38:16.881Z,958.59
2023-10-03T15:40:43.341Z,958.60
2023-10-03T15:43:09.730Z,958.63
2023-10-03T15:45:36.210Z,958.58
2023-10-03T15:48:02.715Z,958.60
2023-10-03T15:50:29.173Z,958.58
2023-10-03T15:52:55.573Z,958.57
2023-10-03T15:55:22.138Z,958.53
2023-10-03T15:57:48.533Z,958.58
2023-10-03T16:00:14.969Z,958.56
2023-10-03T16:02:41.486Z,958.60
2023-10-03T16:05:07.985Z,958.60
2023-10-03T16:07:34.397Z,958.51
2023-10-03T16:10:00.825Z,958.49
2023-10-03T16:12:27.189Z,958.52
2023-10-03T16:14:53.642Z,958.53
2023-10-03T16:17:19.980Z,958.59
2023-10-03T16:19:46.421Z,958.54
2023-10-03T16:22:12.796Z,958.54
2023-10-03T16:24:39.332Z,958.60
2023-10-03T16:27:05.724Z,958.62
2023-10-03T16:29:32.209Z,958.60
2023-10-03T16:31:58.558Z,958.66
2023-10-03T16:34:25.067Z,958.63
2023-10-03T16:36:51.596Z,958.66
2023-10-03T16:39:18.111Z,958.65
2023-10-03T16:41:44.730Z,958.62
2023-10-03T16:44:11.001Z,958.68
2023-10-03T16:46:38.534Z,958.69
2023-10-03T16:49:05.084Z,958.67
2023-10-03T16:51:31.261Z,958.66
2023-10-03T16:54:00.056Z,958.67
2023-10-03T16:56:26.424Z,958.67
2023-10-03T16:58:52.821Z,958.70
2023-10-03T17:01:19.198Z,958.68
2023-10-03T17:03:45.753Z,958.69
2023-10-03T17:06:12.115Z,958.70
2023-10-03T17:08:38.474Z,958.68
2023-10-03T17:11:04.926Z,958.70
2023-10-03T17:13:31.457Z,958.68
2023-10-03T17:15:57.822Z,958.66
2023-10-03T17:18:24.375Z,958.71
2023-10-03T17:20:50.877Z,958.71
2023-10-03T17:23:17.302Z,958.68
2023-10-03T17:25:43.721Z,958.73
2023-10-03T17:28:10.176Z,958.77
2023-10-03T17:30:36.534Z,958.78
2023-10-03T17:33:05.051Z,958.86
2023-10-03T17:35:29.391Z,958.80
2023-10-03T17:37:55.959Z,958.79
2023-10-03T17:40:22.432Z,958.82
2023-10-03T17:42:48.821Z,958.80
2023-10-03T17:45:15.295Z,958.86
2023-10-03T17:47:41.676Z,958.82
2023-10-03T17:50:08.009Z,958.77
2023-10-03T17:52:35.630Z,958.85
2023-10-03T17:55:02.172Z,958.82
2023-10-03T17:57:28.663Z,958.78
2023-10-03T18:02:21.395Z,958.84
2023-10-03T18:04:47.870Z,958.83
2023-10-03T18:07:14.304Z,958.89
2023-10-03T18:09:40.658Z,958.93
2023-10-03T18:12:07.345Z,958.96
2023-10-03T18:14:33.664Z,958.91
2023-10-03T18:17:00.151Z,958.96
2023-10-03T18:19:26.665Z,959.00
2023-10-03T18:21:53.021Z,958.99
2023-10-03T18:24:19.393Z,959.04
2023-10-03T18:26:45.829Z,959.03
2023-10-03T18:29:12.155Z,959.05
2023-10-03T18:31:38.559Z,959.06
2023-10-03T18:34:04.960Z,959.10
2023-10-03T18:36:31.432Z,959.15
2023-10-03T18:38:57.887Z,959.15
2023-10-03T18:41:24.280Z,959.17
2023-10-03T18:43:50.745Z,959.23
2023-10-03T18:46:17.293Z,959.19
2023-10-03T18:48:43.651Z,959.23
2023-10-03T18:51:10.085Z,959.17
2023-10-03T18:53:36.483Z,959.27
2023-10-03T18:56:02.956Z,959.27
2023-10-03T18:58:29.328Z,959.24
2023-10-03T19:00:55.744Z,959.26
2023-10-03T19:03:22.182Z,959.36
2023-10-03T19:05:48.576Z,959.34
2023-10-03T19:08:14.998Z,959.31
2023-10-03T19:10:41.522Z,959.34
2023-10-03T19:13:08.047Z,959.34
2023-10-03T19:15:34.549Z,959.29
2023-10-03T19:18:00.987Z,959.35
2023-10-03T19:20:27.344Z,959.34
2023-10-03T19:22:53.723Z,959.32
2023-10-03T19:25:20.173Z,959.39
2023-10-03T19:27:46.571Z,959.32
2023-10-03T19:30:13.684Z,959.38
2023-10-03T19:32:39.511Z,959.41
2023-10-03T19:35:05.883Z,959.37
2023-10-03T19:37:32.277Z,959.39
2023-10-03T19:39:58.679Z,959.35
2023-10-03T19:42:25.313Z,959.35
2023-10-03T19:44:51.788Z,959.40
2023-10-03T19:47:18.121Z,959.32
2023-10-03T19:49:44.783Z,959.38
2023-10-03T19:52:11.188Z,959.39
2023-10-03T19:54:37.635Z,959.32
2023-10-03T19:57:04.013Z,959.34
2023-10-03T19:59:30.553Z,959.34
2023-10-03T20:01:57.015Z,959.30
2023-10-03T20:04:23.469Z,959.36
2023-10-03T20:06:49.868Z,959.34
2023-10-03T20:09:16.307Z,959.36
2023-10-03T20:11:42.622Z,959.40
2023-10-03T20:14:09.225Z,959.40
2023-10-03T20:16:35.639Z,959.35
2023-10-03T20:19:02.255Z,959.33
2023-10-03T20:21:28.443Z,959.43
2023-10-03T20:23:54.805Z,959.34
2023-10-03T20:26:21.167Z,959.37
2023-10-03T20:28:47.635Z,959.28
2023-10-03T20:31:14.123Z,959.35
2023-10-03T20:33:40.549Z,959.40
2023-10-03T20:36:07.016Z,959.33
2023-10-03T20:38:33.379Z,959.37
2023-10-03T20:40:59.777Z,959.35
2023-10-03T20:43:26.179Z,959.41
2023-10-03T20:45:52.600Z,959.45
2023-10-03T20:48:19.088Z,959.47
2023-10-03T20:50:45.428Z,959.47
2023-10-03T20:53:11.861Z,959.41
2023-10-03T20:55:38.224Z,959.38
2023-10-03T20:58:04.697Z,959.41
2023-10-03T21:00:31.184Z,959.44
2023-10-03T21:02:57.532Z,959.44
2023-10-03T21:05:23.942Z,959.44
2023-10-03T21:07:50.331Z,959.38
2023-10-03T21:10:16.760Z,959.39
2023-10-03T21:12:43.131Z,959.34
2023-10-03T21:15:09.577Z,959.43
2023-10-03T21:17:35.958Z,959.41
2023-10-03T21:20:02.334Z,959.49
2023-10-03T21:22:28.694Z,959.41
2023-10-03T21:24:55.117Z,959.43
2023-10-03T21:27:24.007Z,959.37
2023-10-03T21:29:49.004Z,959.42
2023-10-03T21:32:15.924Z,959.43
2023-10-03T21:34:42.429Z,959.43
2023-10-03T21:37:08.755Z,959.39
2023-10-03T21:39:35.229Z,959.39
2023-10-03T21:42:01.617Z,959.42
2023-10-03T21:44:28.002Z,959.41
2023-10-03T21:46:54.431Z,959.42
2023-10-03T21:49:20.869Z,959.38
2023-10-03T21:51:47.222Z,959.41
2023-10-03T21:54:13.693Z,959.38
2023-10-03T21:56:40.033Z,959.42
2023-10-03T21:59:06.511Z,959.37
2023-10-03T22:01:32.960Z,959.32
2023-10-03T22:03:59.351Z,959.33
2023-10-03T22:06:25.784Z,959.41
2023-10-03T22:08:52.181Z,959.38
2023-10-03T22:11:18.527Z,959.41
2023-10-03T22:13:44.950Z,959.41
2023-10-03T22:16:11.457Z,959.46
2023-10-03T22:18:37.776Z,959.44
2023-10-03T22:21:04.154Z,959.39
2023-10-03T22:23:30.555Z,959.44
2023-10-03T22:25:56.938Z,959.43
2023-10-03T22:28:23.398Z,959.39
2023-10-03T22:30:49.735Z,959.37
2023-10-03T22:33:16.314Z,959.38
2023-10-03T22:35:42.591Z,959.41
2023-10-03T22:38:09.410Z,959.42
2023-10-03T22:40:35.409Z,959.35
2023-10-03T22:43:01.809Z,959.39
2023-10-03T22:45:28.291Z,959.39
2023-10-03T22:47:54.733Z,959.39
2023-10-03T22:50:21.103Z,959.38
2023-10-03T22:52:47.460Z,959.40
2023-10-03T22:55:13.845Z,959.38
2023-10-03T22:57:40.305Z,959.42
2023-10-03T23:00:06.769Z,959.39
2023-10-03T23:02:33.180Z,959.44
2023-10-03T23:04:59.501Z,959.42
2023-10-03T23:07:25.887Z,959.37
2023-10-03T23:09:52.265Z,959.36
2023-10-03T23:12:18.753Z,959.43
2023-10-03T23:14:45.065Z,959.42
2023-10-03T23:17:11.510Z,959.36
2023-10-03T23:19:37.866Z,959.36
2023-10-03T23:22:04.309Z,959.37
2023-10-03T23:24:30.733Z,959.33
2023-10-03T23:26:57.166Z,959.40
2023-10-03T23:29:23.525Z,959.37
2023-10-03T23:31:49.992Z,959.34
2023-10-03T23:34:16.356Z,959.33
2023-10-03T23:36:42.830Z,959.33
2023-10-03T23:39:09.291Z,959.30
2023-10-03T23:41:35.652Z,959.33
2023-10-03T23:44:02.052Z,959.35
2023-10-03T23:46:28.544Z,959.33
2023-10-03T23:48:54.853Z,959.30
2023-10-03T23:51:21.279Z,959.25
2023-10-03T23:53:47.693Z,959.27
2023-10-03T23:56:14.048Z,959.29
2023-10-03T23:58:40.421Z,959.23
